Terminal Aerodrome Forecast
Issued by NWS

Home | Current Version | Previous Version | Text Only | Print | Product List | Glossary On
Versions: 1 2 3 4 5 6 7 8 9 10 11 12 13 14 15 16 17 18
000
FTUS45 KTFX 291412 AAA
TAFGTF
TAF AMD
KGTF 291412Z 2914/3012 VRB05KT 3SM FU BKN030
     FM291900 17015G25KT 5SM FU SCT080 BKN150
     FM292200 23018G27KT P6SM SCT080 OVC150
     FM300200 22011KT 4SM FU BKN120=

USA.gov is the U.S. government's official web portal to all federal, state and local government web resources and services.